createdAt,value
2022-09-30T00:00:37.492Z,22.73
2022-09-30T00:03:05.787Z,22.97
2022-09-30T00:05:34.235Z,21.50
2022-09-30T00:08:05.885Z,20.50
2022-09-30T00:10:34.256Z,21.67
2022-09-30T00:13:02.815Z,21.47
2022-09-30T00:15:32.420Z,21.33
2022-09-30T00:18:02.775Z,21.00
2022-09-30T00:20:31.278Z,21.70
2022-09-30T00:22:59.546Z,21.57
2022-09-30T00:25:30.608Z,22.20
2022-09-30T00:27:58.911Z,21.23
2022-09-30T00:30:29.499Z,21.90
2022-09-30T00:32:58.156Z,22.50
2022-09-30T00:35:31.906Z,21.70
2022-09-30T00:38:00.640Z,22.57
2022-09-30T00:40:30.607Z,22.57
2022-09-30T00:42:58.962Z,24.00
2022-09-30T00:45:29.274Z,21.87
2022-09-30T00:48:10.329Z,22.07
2022-09-30T00:50:42.481Z,23.50
2022-09-30T00:53:15.734Z,21.90
2022-09-30T00:56:04.113Z,21.50
2022-09-30T00:58:46.024Z,21.30
2022-09-30T01:01:25.155Z,20.67
2022-09-30T01:04:01.634Z,21.70
2022-09-30T01:06:30.304Z,21.40
2022-09-30T01:08:59.850Z,21.23
2022-09-30T01:11:45.011Z,22.40
2022-09-30T01:14:17.179Z,22.30
2022-09-30T01:16:56.152Z,21.63
2022-09-30T01:19:40.627Z,22.20
2022-09-30T01:22:22.878Z,21.90
2022-09-30T01:25:27.065Z,21.90
2022-09-30T01:28:34.879Z,20.90
2022-09-30T01:31:18.235Z,21.10
2022-09-30T01:34:12.779Z,22.37
2022-09-30T01:36:55.362Z,21.97
2022-09-30T01:39:35.250Z,22.00
2022-09-30T01:42:12.786Z,21.13
2022-09-30T01:44:50.306Z,23.00
2022-09-30T01:47:32.859Z,21.40
2022-09-30T01:50:11.710Z,21.80
2022-09-30T01:52:46.536Z,21.90
2022-09-30T01:55:29.674Z,22.10
2022-09-30T02:01:45.655Z,21.50
2022-09-30T02:04:21.475Z,21.77
2022-09-30T02:07:02.276Z,20.80
2022-09-30T02:09:35.328Z,20.80
2022-09-30T02:12:12.880Z,21.43
2022-09-30T02:14:47.760Z,20.87
2022-09-30T02:17:20.508Z,21.90
2022-09-30T02:19:55.592Z,21.50
2022-09-30T02:22:33.118Z,20.60
2022-09-30T02:25:04.688Z,22.00
2022-09-30T02:27:42.500Z,22.33
2022-09-30T02:30:13.912Z,22.30
2022-09-30T02:32:49.933Z,23.80
2022-09-30T02:35:25.759Z,23.30
2022-09-30T02:37:59.769Z,23.03
2022-09-30T02:40:33.142Z,22.57
2022-09-30T02:43:04.409Z,22.50
2022-09-30T02:45:41.672Z,24.17
2022-09-30T02:48:26.425Z,23.43
2022-09-30T02:51:05.341Z,22.77
2022-09-30T02:53:38.696Z,22.10
2022-09-30T02:56:24.823Z,22.70
2022-09-30T02:58:54.181Z,21.60
2022-09-30T03:01:22.361Z,23.20
2022-09-30T03:03:56.991Z,23.13
2022-09-30T03:06:26.984Z,22.17
2022-09-30T03:08:55.626Z,23.37
2022-09-30T03:11:26.096Z,22.33
2022-09-30T03:14:19.230Z,23.10
2022-09-30T03:17:20.400Z,24.40
2022-09-30T03:20:10.196Z,23.50
2022-09-30T03:23:04.441Z,23.60
2022-09-30T03:25:43.774Z,23.20
2022-09-30T03:28:21.975Z,22.70
2022-09-30T03:31:00.768Z,23.27
2022-09-30T03:33:37.549Z,23.77
2022-09-30T03:36:13.039Z,23.00
2022-09-30T03:38:49.215Z,23.00
2022-09-30T03:41:26.556Z,20.40
2022-09-30T03:44:02.271Z,22.70
2022-09-30T03:46:35.954Z,21.40
2022-09-30T03:49:08.308Z,22.90
2022-09-30T03:51:39.093Z,22.47
2022-09-30T03:54:11.321Z,22.73
2022-09-30T03:56:43.193Z,22.20
2022-09-30T03:59:23.138Z,21.47
2022-09-30T04:01:51.754Z,13.70
2022-09-30T04:04:20.412Z,13.00
2022-09-30T04:06:48.756Z,15.13
2022-09-30T04:09:19.002Z,12.43
2022-09-30T04:11:47.185Z,19.20
2022-09-30T04:14:15.393Z,21.20
2022-09-30T04:16:43.530Z,21.80
2022-09-30T04:19:11.672Z,21.37
2022-09-30T04:21:39.907Z,21.27
2022-09-30T04:24:08.770Z,21.33
2022-09-30T04:26:38.334Z,20.80
2022-09-30T04:29:06.603Z,21.37
2022-09-30T04:31:34.829Z,22.47
2022-09-30T04:34:06.345Z,22.80
2022-09-30T04:36:34.475Z,22.50
2022-09-30T04:39:05.232Z,22.00
2022-09-30T04:41:34.247Z,23.03
2022-09-30T04:44:06.387Z,22.27
2022-09-30T04:46:36.893Z,23.70
2022-09-30T04:49:08.963Z,23.30
2022-09-30T04:51:38.508Z,17.07
2022-09-30T04:54:08.796Z,22.13
2022-09-30T04:56:39.658Z,22.47
2022-09-30T04:59:09.421Z,22.00
2022-09-30T05:01:39.356Z,22.63
2022-09-30T05:04:08.337Z,22.23
2022-09-30T05:06:36.851Z,22.47
2022-09-30T05:09:05.151Z,23.07
2022-09-30T05:11:33.284Z,23.43
2022-09-30T05:14:01.482Z,21.27
2022-09-30T05:16:31.064Z,23.00
2022-09-30T05:18:59.233Z,24.17
2022-09-30T05:21:28.366Z,23.97
2022-09-30T05:23:56.600Z,24.47
2022-09-30T05:26:24.737Z,25.00
2022-09-30T05:28:53.005Z,24.77
2022-09-30T05:31:21.874Z,25.00
2022-09-30T05:33:54.622Z,24.90
2022-09-30T05:36:26.004Z,25.77
2022-09-30T05:38:54.796Z,24.00
2022-09-30T05:41:24.536Z,25.23
2022-09-30T05:43:52.772Z,25.30
2022-09-30T05:46:27.258Z,24.27
2022-09-30T05:48:57.259Z,24.53
2022-09-30T05:51:25.463Z,25.77
2022-09-30T05:53:53.626Z,27.37
2022-09-30T05:56:21.923Z,25.97
2022-09-30T05:58:52.540Z,26.33
2022-09-30T06:01:20.742Z,26.00
2022-09-30T06:03:49.015Z,25.87
2022-09-30T06:06:21.247Z,25.50
2022-09-30T06:08:51.497Z,24.77
2022-09-30T06:11:23.477Z,22.90
2022-09-30T06:13:52.420Z,23.63
2022-09-30T06:16:21.013Z,22.20
2022-09-30T06:18:49.228Z,23.73
2022-09-30T06:21:19.501Z,22.97
2022-09-30T06:23:47.867Z,21.77
2022-09-30T06:26:16.611Z,22.67
2022-09-30T06:28:45.640Z,24.43
2022-09-30T06:31:14.679Z,22.93
2022-09-30T06:33:43.529Z,23.90
2022-09-30T06:36:12.083Z,24.40
2022-09-30T06:38:41.968Z,23.93
2022-09-30T06:41:11.618Z,23.27
2022-09-30T06:43:50.325Z,23.90
2022-09-30T06:46:29.596Z,23.67
2022-09-30T06:49:13.259Z,24.10
2022-09-30T06:51:42.342Z,24.77
2022-09-30T06:54:13.660Z,24.30
2022-09-30T06:56:42.013Z,25.60
2022-09-30T06:59:10.316Z,25.20
2022-09-30T07:01:42.282Z,23.90
2022-09-30T07:04:11.432Z,25.40
2022-09-30T07:06:40.298Z,25.50
2022-09-30T07:09:09.823Z,24.93
2022-09-30T07:11:39.935Z,26.17
2022-09-30T07:14:08.786Z,24.70
2022-09-30T07:16:43.374Z,25.20
2022-09-30T07:19:12.347Z,25.87
2022-09-30T07:21:46.770Z,25.70
2022-09-30T07:24:15.142Z,25.57
2022-09-30T07:26:46.027Z,25.37
2022-09-30T07:29:15.337Z,24.87
2022-09-30T07:31:43.891Z,24.40
2022-09-30T07:34:12.632Z,24.37
2022-09-30T07:36:56.667Z,24.60
2022-09-30T07:39:24.939Z,24.43
2022-09-30T07:41:55.372Z,24.27
2022-09-30T07:44:26.287Z,24.67
2022-09-30T07:46:54.891Z,24.97
2022-09-30T07:49:25.792Z,23.73
2022-09-30T07:51:56.446Z,24.10
2022-09-30T07:54:26.777Z,24.13
2022-09-30T07:57:09.745Z,24.53
2022-09-30T07:59:42.305Z,24.37
2022-09-30T08:02:17.094Z,27.47
2022-09-30T08:04:45.529Z,24.60
2022-09-30T08:07:15.473Z,23.63
2022-09-30T08:12:45.776Z,24.03
2022-09-30T08:15:14.130Z,23.13
2022-09-30T08:17:42.509Z,22.17
2022-09-30T08:20:14.297Z,22.97
2022-09-30T08:22:43.999Z,25.00
2022-09-30T08:25:12.701Z,24.23
2022-09-30T08:27:40.946Z,23.03
2022-09-30T08:30:12.846Z,25.23
2022-09-30T08:32:41.108Z,23.83
2022-09-30T08:35:10.001Z,24.70
2022-09-30T08:37:38.142Z,23.77
2022-09-30T08:40:07.849Z,22.93
2022-09-30T08:42:52.919Z,24.40
2022-09-30T08:45:34.679Z,23.80
2022-09-30T08:48:13.783Z,23.67
2022-09-30T08:50:52.010Z,22.60
2022-09-30T08:53:26.539Z,24.07
2022-09-30T08:55:58.110Z,22.90
2022-09-30T08:58:29.701Z,23.40
2022-09-30T09:01:07.159Z,23.23
2022-09-30T09:03:36.804Z,22.60
2022-09-30T09:06:21.568Z,21.97
2022-09-30T09:09:16.003Z,21.30
2022-09-30T09:11:58.103Z,22.33
2022-09-30T09:14:38.177Z,21.73
2022-09-30T09:17:22.145Z,21.70
2022-09-30T09:20:03.509Z,22.47
2022-09-30T09:22:34.141Z,22.43
2022-09-30T09:25:03.207Z,22.47
2022-09-30T09:27:42.710Z,21.63
2022-09-30T09:30:13.436Z,22.00
2022-09-30T09:32:43.918Z,21.30
2022-09-30T09:35:17.299Z,20.57
2022-09-30T09:38:15.006Z,20.93
2022-09-30T09:44:10.580Z,21.27
2022-09-30T09:46:46.052Z,21.97
2022-09-30T09:49:36.338Z,20.63
2022-09-30T09:52:30.746Z,22.70
2022-09-30T09:55:00.859Z,20.73
2022-09-30T09:57:32.517Z,19.47
2022-09-30T10:00:22.962Z,20.77
2022-09-30T10:03:03.900Z,20.83
2022-09-30T10:05:39.924Z,20.53
2022-09-30T10:08:15.180Z,20.20
2022-09-30T10:10:47.908Z,18.63
2022-09-30T10:13:21.223Z,18.93
2022-09-30T10:15:55.359Z,17.90
2022-09-30T10:18:29.417Z,18.50
2022-09-30T10:21:02.238Z,19.57
2022-09-30T10:23:32.646Z,20.07
2022-09-30T10:26:06.405Z,18.87
2022-09-30T10:28:45.773Z,18.90
2022-09-30T10:31:19.017Z,18.50
2022-09-30T10:33:49.529Z,19.03
2022-09-30T10:36:20.890Z,17.60
2022-09-30T10:39:04.148Z,17.30
2022-09-30T10:41:36.963Z,17.83
2022-09-30T10:44:08.552Z,17.30
2022-09-30T10:46:40.393Z,17.53
2022-09-30T10:49:12.993Z,17.67
2022-09-30T10:51:47.759Z,18.23
2022-09-30T10:54:37.588Z,23.30
2022-09-30T10:57:05.942Z,18.80
2022-09-30T10:59:38.467Z,18.83
2022-09-30T11:04:58.878Z,18.80
2022-09-30T11:07:37.103Z,18.60
2022-09-30T11:10:13.359Z,17.90
2022-09-30T11:12:45.747Z,18.80
2022-09-30T11:15:23.276Z,19.20
2022-09-30T11:17:57.627Z,19.10
2022-09-30T11:20:30.924Z,18.80
2022-09-30T11:23:47.978Z,18.40
2022-09-30T11:26:29.579Z,18.93
2022-09-30T11:29:21.619Z,18.27
2022-09-30T11:32:00.251Z,17.50
2022-09-30T11:34:44.084Z,18.20
2022-09-30T11:37:21.082Z,19.70
2022-09-30T11:40:31.097Z,19.17
2022-09-30T11:43:09.705Z,17.73
2022-09-30T11:45:54.119Z,18.20
2022-09-30T11:48:39.036Z,18.50
2022-09-30T11:51:15.960Z,19.10
2022-09-30T11:53:55.688Z,19.60
2022-09-30T11:56:39.222Z,18.60
2022-09-30T11:59:16.698Z,19.00
2022-09-30T12:01:50.001Z,18.90
2022-09-30T12:04:23.386Z,18.60
2022-09-30T12:07:05.426Z,18.63
2022-09-30T12:09:47.982Z,18.27
2022-09-30T12:12:34.290Z,17.97
2022-09-30T12:15:15.913Z,18.00
2022-09-30T12:17:52.726Z,17.97
2022-09-30T12:27:57.210Z,17.93
2022-09-30T12:39:28.314Z,16.30
2022-09-30T12:42:42.940Z,17.90
2022-09-30T12:46:13.831Z,17.10
2022-09-30T12:49:22.946Z,16.80
2022-09-30T12:52:21.816Z,17.07
2022-09-30T12:55:42.883Z,16.80
2022-09-30T13:01:59.593Z,16.97
2022-09-30T13:05:00.327Z,19.87
2022-09-30T13:07:58.281Z,16.10
2022-09-30T13:10:32.782Z,15.37
2022-09-30T13:20:31.868Z,16.03
2022-09-30T13:23:10.960Z,16.37
2022-09-30T13:25:55.524Z,16.53
2022-09-30T13:28:32.573Z,16.53
2022-09-30T13:32:04.386Z,16.47
2022-09-30T13:34:53.508Z,16.20
2022-09-30T17:08:46.273Z,19.43
2022-09-30T17:11:20.794Z,19.40
2022-09-30T17:13:49.382Z,18.43
2022-09-30T17:16:24.760Z,21.70
2022-09-30T17:18:53.707Z,20.03
2022-09-30T17:21:23.539Z,20.30
2022-09-30T17:24:02.178Z,23.77
2022-09-30T17:26:35.655Z,21.03
2022-09-30T17:29:21.043Z,23.03
2022-09-30T17:32:05.296Z,22.07
2022-09-30T17:34:53.288Z,22.00
2022-09-30T17:37:22.242Z,23.50
2022-09-30T17:39:55.692Z,25.17
2022-09-30T17:42:43.658Z,23.70
2022-09-30T17:45:12.442Z,24.50
2022-09-30T17:47:41.544Z,26.80
2022-09-30T17:50:23.769Z,23.93
2022-09-30T17:52:57.177Z,22.87
2022-09-30T17:58:55.660Z,21.10
2022-09-30T18:02:15.168Z,21.03
2022-09-30T18:05:26.150Z,21.53
2022-09-30T18:14:07.232Z,21.57
2022-09-30T18:16:41.919Z,22.37
2022-09-30T18:19:37.785Z,23.50
2022-09-30T18:22:33.063Z,21.90
2022-09-30T18:25:28.705Z,23.80
2022-09-30T18:28:31.993Z,23.10
2022-09-30T18:31:08.862Z,22.63
2022-09-30T18:33:42.501Z,22.00
2022-09-30T18:36:21.210Z,25.27
2022-09-30T18:38:54.193Z,22.67
2022-09-30T18:41:46.446Z,23.83
2022-09-30T18:44:34.040Z,23.77
2022-09-30T18:47:19.312Z,26.80
2022-09-30T18:49:56.640Z,24.77
2022-09-30T18:52:34.843Z,26.97
2022-09-30T18:55:17.668Z,27.07
2022-09-30T18:57:51.295Z,25.27
2022-09-30T19:00:25.256Z,26.83
2022-09-30T19:03:09.030Z,25.53
2022-09-30T19:05:55.725Z,26.40
2022-09-30T19:08:42.429Z,26.70
2022-09-30T19:11:19.831Z,24.50
2022-09-30T19:14:17.043Z,23.77
2022-09-30T19:16:51.754Z,25.90
2022-09-30T19:19:32.333Z,24.63
2022-09-30T19:22:34.100Z,24.80
2022-09-30T19:25:06.019Z,24.33
2022-09-30T19:27:38.776Z,24.63
2022-09-30T19:30:42.662Z,24.50
2022-09-30T19:33:31.679Z,24.80
2022-09-30T19:36:14.947Z,25.00
2022-09-30T19:39:22.524Z,26.33
2022-09-30T19:41:57.238Z,24.60
2022-09-30T19:44:31.935Z,24.50
2022-09-30T19:47:04.731Z,23.87
2022-09-30T19:49:45.150Z,24.37
2022-09-30T19:52:22.286Z,25.10
2022-09-30T19:55:15.768Z,22.00
2022-09-30T20:01:22.038Z,22.40
2022-09-30T20:04:01.542Z,23.40
2022-09-30T20:09:17.153Z,22.00
2022-09-30T20:12:11.428Z,23.33
2022-09-30T20:14:58.131Z,21.73
2022-09-30T20:18:21.616Z,22.40
2022-09-30T20:20:50.086Z,22.73
2022-09-30T20:23:27.502Z,22.67
2022-09-30T20:26:06.108Z,21.30
2022-09-30T20:28:43.034Z,21.50
2022-09-30T20:31:17.690Z,23.60
2022-09-30T20:33:51.162Z,22.20
2022-09-30T20:36:24.408Z,21.23
2022-09-30T20:39:01.232Z,23.00
2022-09-30T20:41:36.040Z,22.33
2022-09-30T20:44:14.192Z,22.00
2022-09-30T20:47:15.960Z,21.20
2022-09-30T20:49:53.190Z,22.70
2022-09-30T20:52:27.040Z,23.80
2022-09-30T20:55:00.607Z,22.90
2022-09-30T20:57:38.501Z,22.27
2022-09-30T21:00:19.393Z,21.37
2022-09-30T21:02:53.623Z,22.17
2022-09-30T21:05:24.415Z,22.23
2022-09-30T21:07:55.554Z,22.03
2022-09-30T21:10:24.404Z,21.43
2022-09-30T21:13:04.973Z,23.00
2022-09-30T21:15:44.181Z,22.40
2022-09-30T21:18:17.065Z,22.73
2022-09-30T21:20:52.416Z,23.40
2022-09-30T21:23:26.332Z,24.33
2022-09-30T21:26:06.415Z,25.27
2022-09-30T21:28:48.101Z,24.90
2022-09-30T21:31:37.627Z,25.03
2022-09-30T21:34:07.752Z,25.43
2022-09-30T21:36:40.619Z,25.80
2022-09-30T21:39:25.916Z,25.90
2022-09-30T21:42:05.906Z,26.50
2022-09-30T21:44:46.638Z,26.27
2022-09-30T21:47:35.393Z,26.80
2022-09-30T21:50:13.376Z,23.00
2022-09-30T21:52:42.354Z,25.00
2022-09-30T21:55:14.159Z,26.10
2022-09-30T21:57:49.201Z,27.20
2022-09-30T22:00:32.215Z,25.13
2022-09-30T22:03:11.520Z,27.23
2022-09-30T22:05:42.583Z,26.30
2022-09-30T22:10:58.856Z,23.80
2022-09-30T22:13:34.154Z,23.97
2022-09-30T22:16:11.128Z,23.90
2022-09-30T22:18:45.663Z,22.77
2022-09-30T22:21:20.306Z,20.60
2022-09-30T22:24:04.760Z,22.60
2022-09-30T22:26:46.474Z,22.30
2022-09-30T22:29:15.757Z,24.13
2022-09-30T22:31:51.018Z,28.47
2022-09-30T22:34:40.750Z,35.10
2022-09-30T22:37:33.334Z,40.30
2022-09-30T22:40:05.532Z,32.50
2022-09-30T22:42:37.778Z,34.33
2022-09-30T22:45:16.353Z,35.73
2022-09-30T22:47:57.343Z,30.83
2022-09-30T22:50:43.553Z,28.73
2022-09-30T22:53:16.063Z,26.07
2022-09-30T22:55:54.376Z,24.60
2022-09-30T22:58:25.027Z,22.97
2022-09-30T23:01:35.965Z,24.20
2022-09-30T23:07:50.039Z,23.00
2022-09-30T23:10:27.100Z,24.20
2022-09-30T23:24:52.150Z,24.50
2022-09-30T23:27:22.623Z,27.20
2022-09-30T23:30:00.035Z,27.60
2022-09-30T23:32:43.872Z,24.50
2022-09-30T23:35:18.889Z,21.53
2022-09-30T23:37:50.778Z,21.53
2022-09-30T23:40:21.912Z,22.33
2022-09-30T23:42:55.858Z,22.03
2022-09-30T23:45:32.695Z,23.57
2022-09-30T23:48:03.883Z,23.33
2022-09-30T23:50:33.314Z,21.70
2022-09-30T23:53:22.548Z,22.60
2022-09-30T23:56:00.104Z,24.60
2022-09-30T23:58:34.424Z,24.87
